Time;durP1;ratioP1;P1;durP2;ratioP2;P2;SDS_P1;SDS_P2;PMS_P1;PMS_P2;Temp;Humidity;BMP_temperature;BMP_pressure;BME280_temperature;BME280_humidity;BME280_pressure;Samples;Min_cycle;Max_cycle;Signal;HPM_P1;HPM_P2
2022/12/13 00:01:15;;;;;;;47.25;22.77;;;-2.20;99.90;;;;;;5005603;28;20045;-75
2022/12/13 00:03:41;;;;;;;44.78;22.85;;;-2.20;99.90;;;;;;5028484;28;20044;-74
2022/12/13 00:06:08;;;;;;;53.13;23.40;;;-2.20;99.90;;;;;;5043784;28;20041;-74
2022/12/13 00:08:35;;;;;;;47.13;23.02;;;-2.20;99.90;;;;;;5015852;28;20038;-73
2022/12/13 00:11:06;;;;;;;43.78;22.38;;;-2.20;99.90;;;;;;5030836;28;20041;-74
2022/12/13 00:13:33;;;;;;;45.17;23.08;;;-2.20;99.90;;;;;;5017215;28;20033;-75
2022/12/13 00:16:05;;;;;;;49.05;23.70;;;-2.20;99.90;;;;;;5029586;28;20574;-77
2022/12/13 00:18:31;;;;;;;50.85;23.70;;;-2.20;99.90;;;;;;5027652;28;20060;-74
2022/12/13 00:20:57;;;;;;;46.50;21.95;;;-2.30;99.90;;;;;;5012003;28;20095;-74
2022/12/13 00:23:23;;;;;;;46.00;22.73;;;-2.30;99.90;;;;;;5009095;28;20037;-74
2022/12/13 00:25:49;;;;;;;43.72;21.85;;;-2.30;99.90;;;;;;5038999;28;20613;-74
2022/12/13 00:28:16;;;;;;;46.45;22.73;;;-2.30;99.90;;;;;;5019228;28;20071;-74
2022/12/13 00:30:42;;;;;;;46.90;23.35;;;-2.30;99.90;;;;;;5034331;28;20052;-74
2022/12/13 00:33:08;;;;;;;48.30;22.75;;;-1.30;99.90;;;;;;5017434;28;20039;-75
2022/12/13 00:35:40;;;;;;;46.22;21.90;;;-2.40;99.90;;;;;;5039604;28;20049;-74
2022/12/13 00:38:08;;;;;;;42.58;20.92;;;-2.40;99.90;;;;;;5031705;28;20169;-73
2022/12/13 00:40:34;;;;;;;49.30;23.00;;;-2.40;99.90;;;;;;5038629;28;20059;-75
2022/12/13 00:42:59;;;;;;;45.17;22.85;;;-2.40;99.90;;;;;;5017613;28;20041;-75
2022/12/13 00:45:25;;;;;;;44.25;21.85;;;-2.40;99.90;;;;;;5034183;28;20032;-74
2022/12/13 00:47:51;;;;;;;44.03;20.70;;;-0.80;99.90;;;;;;5015897;28;20045;-75
2022/12/13 00:50:19;;;;;;;45.75;22.80;;;-2.50;99.90;;;;;;5010947;28;20029;-74
2022/12/13 00:52:45;;;;;;;47.10;21.40;;;-2.60;99.90;;;;;;5026437;28;20064;-74
2022/12/13 00:55:10;;;;;;;43.78;21.98;;;-2.50;99.90;;;;;;5028875;28;20076;-74
2022/12/13 00:57:38;;;;;;;47.05;22.58;;;-2.50;99.90;;;;;;5005963;28;20287;-74
2022/12/13 01:00:05;;;;;;;48.50;22.48;;;-2.50;99.90;;;;;;5032924;28;20114;-73
2022/12/13 01:02:31;;;;;;;45.53;21.95;;;-2.60;99.90;;;;;;5033110;28;20109;-74
2022/12/13 01:04:58;;;;;;;49.78;23.15;;;-2.60;99.90;;;;;;5024267;28;20067;-75
2022/12/13 01:07:24;;;;;;;44.63;21.77;;;-2.70;99.90;;;;;;5029171;28;20059;-74
2022/12/13 01:09:49;;;;;;;40.67;20.23;;;-2.50;99.90;;;;;;5016430;28;20405;-74
2022/12/13 01:12:16;;;;;;;48.97;22.02;;;-1.40;99.90;;;;;;5029208;28;20060;-74
2022/12/13 01:14:41;;;;;;;42.28;21.48;;;-2.70;99.90;;;;;;5042032;28;20055;-75
2022/12/13 01:17:07;;;;;;;40.70;20.30;;;-2.30;99.90;;;;;;5017647;28;20037;-74
2022/12/13 01:19:36;;;;;;;45.42;20.85;;;-2.70;99.90;;;;;;4982767;28;20039;-73
2022/12/13 01:22:05;;;;;;;42.15;20.77;;;-2.70;99.90;;;;;;5014046;28;20159;-74
2022/12/13 01:24:31;;;;;;;44.65;21.38;;;-2.70;99.90;;;;;;5011960;28;20053;-74
2022/12/13 01:26:57;;;;;;;41.80;21.42;;;-2.20;99.90;;;;;;5031777;28;20049;-73
2022/12/13 01:29:25;;;;;;;43.35;21.15;;;-2.70;99.90;;;;;;5020689;28;20086;-73
2022/12/13 01:31:50;;;;;;;43.72;21.23;;;-1.90;99.90;;;;;;5031446;28;20037;-74
2022/12/13 01:34:19;;;;;;;43.90;20.90;;;-2.80;99.90;;;;;;5011935;28;20047;-73
2022/12/13 01:36:48;;;;;;;42.00;20.98;;;-2.30;99.90;;;;;;5013404;28;20049;-72
2022/12/13 01:39:18;;;;;;;40.35;20.48;;;-2.20;99.90;;;;;;5033424;28;20085;-75
2022/12/13 01:41:49;;;;;;;38.60;19.40;;;-2.90;99.90;;;;;;5045820;28;20107;-74
2022/12/13 01:44:53;;;;;;;36.72;18.88;;;-2.10;99.90;;;;;;5026880;28;20048;-75
2022/12/13 01:47:28;;;;;;;38.78;19.58;;;-2.70;99.90;;;;;;5012734;28;20045;-73
2022/12/13 01:49:57;;;;;;;38.75;20.25;;;-3.00;99.90;;;;;;5032471;28;20040;-75
2022/12/13 01:52:23;;;;;;;39.97;19.38;;;-3.00;99.90;;;;;;5041885;28;20041;-74
2022/12/13 01:54:54;;;;;;;41.95;19.85;;;-3.10;99.90;;;;;;5014774;28;20052;-74
2022/12/13 01:57:22;;;;;;;40.80;20.20;;;-3.10;99.90;;;;;;5024386;28;20053;-74
2022/12/13 01:59:52;;;;;;;40.35;19.95;;;-2.80;99.90;;;;;;5013012;28;20510;-75
2022/12/13 02:02:17;;;;;;;40.63;20.40;;;-3.10;99.90;;;;;;5037638;28;20521;-74
2022/12/13 02:05:12;;;;;;;40.80;19.60;;;-3.10;99.90;;;;;;5006461;28;20127;-73
2022/12/13 02:07:41;;;;;;;42.28;20.73;;;-3.20;99.90;;;;;;5002246;28;20049;-74
2022/12/13 02:10:08;;;;;;;40.92;20.10;;;-3.20;99.90;;;;;;5032632;28;20489;-73
2022/12/13 02:12:36;;;;;;;38.63;20.10;;;-3.20;99.90;;;;;;5023980;28;20045;-74
2022/12/13 02:15:12;;;;;;;41.83;20.73;;;-2.70;99.90;;;;;;5044177;28;20041;-74
2022/12/13 02:18:05;;;;;;;40.65;21.35;;;-2.80;99.90;;;;;;5025955;28;20048;-74
2022/12/13 02:20:55;;;;;;;37.53;19.50;;;-3.20;99.90;;;;;;5025724;28;20037;-74
2022/12/13 02:23:45;;;;;;;39.55;20.08;;;-3.20;99.90;;;;;;5030127;28;20037;-74
2022/12/13 02:26:14;;;;;;;39.70;20.05;;;-3.10;99.90;;;;;;5001757;28;20132;-73
2022/12/13 02:29:26;;;;;;;40.55;20.42;;;-3.20;99.90;;;;;;4993915;28;20042;-74
2022/12/13 02:32:04;;;;;;;40.20;19.58;;;-3.10;99.90;;;;;;4989335;28;20038;-73
2022/12/13 02:35:09;;;;;;;42.50;20.50;;;-3.10;99.90;;;;;;5004810;28;20471;-73
2022/12/13 02:38:02;;;;;;;41.50;19.52;;;-3.10;99.90;;;;;;4994397;28;20367;-74
2022/12/13 02:40:32;;;;;;;42.72;19.83;;;-3.10;99.90;;;;;;5001822;28;20042;-74
2022/12/13 02:43:12;;;;;;;39.97;20.05;;;-3.10;99.90;;;;;;4989296;28;20046;-74
2022/12/13 02:45:53;;;;;;;41.53;19.38;;;-3.10;99.90;;;;;;4988660;28;20045;-74
2022/12/13 02:48:29;;;;;;;36.53;19.02;;;-3.10;99.90;;;;;;4990226;28;20042;-73
2022/12/13 02:50:57;;;;;;;40.17;19.17;;;-3.10;99.90;;;;;;5002733;28;20070;-73
2022/12/13 02:53:24;;;;;;;38.80;19.05;;;-2.90;99.90;;;;;;5004117;28;20038;-75
2022/12/13 02:55:53;;;;;;;36.22;18.52;;;-3.10;99.90;;;;;;5006997;28;20124;-73
2022/12/13 02:58:31;;;;;;;39.13;19.08;;;-2.20;99.90;;;;;;4976015;28;20127;-73
2022/12/13 03:01:16;;;;;;;35.75;17.77;;;-2.70;99.90;;;;;;4987428;28;20077;-76
2022/12/13 03:04:07;;;;;;;40.00;19.15;;;-3.10;99.90;;;;;;5006363;28;20050;-73
2022/12/13 03:07:03;;;;;;;38.50;19.17;;;-3.10;99.90;;;;;;4974273;28;20407;-74
2022/12/13 03:09:37;;;;;;;40.65;18.80;;;-2.60;99.90;;;;;;4994292;28;20061;-75
2022/12/13 03:15:40;;;;;;;42.35;19.85;;;-3.20;99.90;;;;;;5005763;28;20113;-73
2022/12/13 03:18:16;;;;;;;36.53;18.42;;;-3.20;99.90;;;;;;5001175;28;20146;-73
2022/12/13 03:20:47;;;;;;;38.88;19.40;;;-3.30;99.90;;;;;;5002579;28;20049;-73
2022/12/13 03:23:14;;;;;;;34.30;17.98;;;-3.30;99.90;;;;;;5005418;28;20120;-73
2022/12/13 03:25:43;;;;;;;40.25;18.92;;;-3.50;99.90;;;;;;5010677;28;20057;-74
2022/12/13 03:28:09;;;;;;;37.20;18.20;;;-3.60;99.90;;;;;;5025256;28;20476;-73
2022/12/13 03:30:35;;;;;;;42.00;19.08;;;-3.50;99.90;;;;;;5004323;28;20033;-74
2022/12/13 03:33:01;;;;;;;37.42;18.50;;;-3.50;99.90;;;;;;4991581;28;20037;-74
2022/12/13 03:35:27;;;;;;;36.45;18.05;;;-3.50;99.90;;;;;;5024745;28;20407;-74
2022/12/13 03:37:53;;;;;;;37.22;18.75;;;-3.50;99.90;;;;;;5016630;28;20514;-75
2022/12/13 03:40:20;;;;;;;36.45;18.65;;;-3.20;99.90;;;;;;5026142;28;20116;-74
2022/12/13 03:42:46;;;;;;;38.00;18.75;;;-3.30;99.90;;;;;;5007109;28;20030;-74
2022/12/13 03:45:12;;;;;;;36.88;18.65;;;-3.50;99.90;;;;;;4973747;28;20049;-73
2022/12/13 03:47:38;;;;;;;37.40;18.73;;;-3.50;99.90;;;;;;5024338;28;20038;-73
2022/12/13 03:50:04;;;;;;;38.53;18.15;;;-3.10;99.90;;;;;;5011160;28;20042;-73
2022/12/13 03:52:30;;;;;;;35.63;17.92;;;-3.50;99.90;;;;;;4997014;28;20037;-74
2022/12/13 03:54:56;;;;;;;41.10;18.38;;;-3.50;99.90;;;;;;4989028;28;20506;-74
2022/12/13 03:57:23;;;;;;;36.80;18.23;;;-3.40;99.90;;;;;;4997924;28;20564;-74
2022/12/13 03:59:49;;;;;;;40.00;19.13;;;-2.20;99.90;;;;;;5030984;28;20398;-74
2022/12/13 04:02:15;;;;;;;35.30;18.80;;;-3.50;99.90;;;;;;5007934;28;20053;-74
2022/12/13 04:04:40;;;;;;;39.70;19.20;;;-3.30;99.90;;;;;;5021724;28;20041;-74
2022/12/13 04:07:09;;;;;;;39.38;19.13;;;-3.30;99.90;;;;;;5024041;28;20107;-74
2022/12/13 04:09:35;;;;;;;40.10;19.75;;;-3.30;99.90;;;;;;5007031;28;20121;-73
2022/12/13 04:14:45;;;;;;;39.30;19.15;;;-3.20;99.90;;;;;;5004164;28;20038;-73
2022/12/13 04:17:11;;;;;;;37.03;18.38;;;-3.20;99.90;;;;;;5020695;28;20510;-74
2022/12/13 04:19:36;;;;;;;37.47;18.83;;;-3.30;99.90;;;;;;4976034;28;20458;-74
2022/12/13 04:22:02;;;;;;;35.17;18.27;;;-3.30;99.90;;;;;;5001380;28;20041;-72
2022/12/13 04:24:28;;;;;;;42.80;18.75;;;-3.20;99.90;;;;;;5018156;28;20471;-75
2022/12/13 04:26:54;;;;;;;35.00;17.48;;;-3.30;99.90;;;;;;4994386;28;20054;-74
2022/12/13 04:29:22;;;;;;;35.65;18.33;;;-3.20;99.90;;;;;;5014019;28;20065;-74
2022/12/13 04:31:48;;;;;;;35.22;18.58;;;-1.80;99.90;;;;;;5024668;28;20165;-73
2022/12/13 04:34:14;;;;;;;36.50;19.25;;;-3.20;99.90;;;;;;5019831;28;20335;-74
2022/12/13 04:36:42;;;;;;;37.60;18.98;;;-3.20;99.90;;;;;;5013541;28;20474;-76
2022/12/13 04:39:08;;;;;;;35.42;19.23;;;-2.70;99.90;;;;;;5013207;28;20037;-74
2022/12/13 04:41:36;;;;;;;35.60;19.70;;;-2.40;99.90;;;;;;5009724;28;20067;-73
2022/12/13 04:44:04;;;;;;;32.83;16.98;;;-3.20;99.90;;;;;;5038484;28;20419;-74
2022/12/13 04:46:29;;;;;;;37.03;17.50;;;-3.30;99.90;;;;;;5030050;28;20041;-74
2022/12/13 04:48:57;;;;;;;33.53;18.08;;;-3.30;99.90;;;;;;5024663;28;20385;-73
2022/12/13 04:51:23;;;;;;;36.05;18.55;;;-3.40;99.90;;;;;;5026714;28;20038;-74
2022/12/13 04:53:49;;;;;;;37.15;18.27;;;-3.30;99.90;;;;;;5007876;28;20038;-74
2022/12/13 04:56:15;;;;;;;36.03;17.70;;;-3.40;99.90;;;;;;5043862;28;20486;-74
2022/12/13 04:58:44;;;;;;;38.83;18.33;;;-3.30;99.90;;;;;;5019083;28;20052;-73
2022/12/13 05:01:11;;;;;;;31.58;17.48;;;-2.40;99.90;;;;;;5009232;28;20099;-74
2022/12/13 05:03:38;;;;;;;33.58;17.35;;;-3.40;99.90;;;;;;4997875;28;20453;-73
2022/12/13 05:06:05;;;;;;;32.58;17.38;;;-3.40;99.90;;;;;;5029043;28;20041;-73
2022/12/13 05:08:31;;;;;;;36.20;18.20;;;-3.40;99.90;;;;;;5014467;28;20497;-73
2022/12/13 05:11:00;;;;;;;36.65;17.70;;;-3.40;99.90;;;;;;4993516;28;20043;-73
2022/12/13 05:13:26;;;;;;;35.75;18.23;;;-2.20;99.90;;;;;;4983256;28;20048;-73
2022/12/13 05:16:00;;;;;;;35.47;18.02;;;-3.40;99.90;;;;;;5025056;28;20034;-74
2022/12/13 05:18:26;;;;;;;36.63;17.73;;;-3.40;99.90;;;;;;5022019;28;20044;-74
2022/12/13 05:20:52;;;;;;;34.58;17.70;;;-3.40;99.90;;;;;;5028865;28;20041;-74
2022/12/13 05:23:20;;;;;;;32.45;17.02;;;-3.40;99.90;;;;;;5029444;28;20057;-73
2022/12/13 05:25:46;;;;;;;35.72;17.77;;;-3.40;99.90;;;;;;5025483;28;20171;-74
2022/12/13 05:28:12;;;;;;;36.03;19.00;;;-3.50;99.90;;;;;;5026198;28;20108;-74
2022/12/13 05:30:38;;;;;;;34.65;17.73;;;-2.90;99.90;;;;;;5026661;28;20037;-74
2022/12/13 05:33:04;;;;;;;35.25;18.40;;;-3.40;99.90;;;;;;5042039;28;20392;-74
2022/12/13 05:35:30;;;;;;;32.65;17.02;;;-3.10;99.90;;;;;;5036780;28;20040;-73
2022/12/13 05:37:58;;;;;;;34.15;17.40;;;-3.50;99.90;;;;;;4996520;28;20746;-73
2022/12/13 05:40:26;;;;;;;30.83;17.13;;;-3.40;99.90;;;;;;5024959;28;20034;-73
2022/12/13 05:42:53;;;;;;;37.10;18.80;;;-3.50;99.90;;;;;;5020949;28;20156;-72
2022/12/13 05:45:19;;;;;;;31.60;16.92;;;-3.50;99.90;;;;;;4999400;28;20121;-74
2022/12/13 05:47:45;;;;;;;34.35;17.42;;;-3.50;99.90;;;;;;4997148;28;20067;-73
2022/12/13 05:50:12;;;;;;;35.08;17.90;;;-3.60;99.90;;;;;;5022331;28;20033;-73
2022/12/13 05:52:38;;;;;;;34.03;17.55;;;-2.50;99.90;;;;;;4996550;28;20659;-74
2022/12/13 05:55:04;;;;;;;31.92;16.88;;;-3.70;99.90;;;;;;5003610;28;20049;-73
2022/12/13 05:57:30;;;;;;;33.55;16.73;;;-3.70;99.90;;;;;;4989664;28;20044;-73
2022/12/13 05:59:56;;;;;;;31.20;16.55;;;-3.80;99.90;;;;;;5024110;28;20042;-72
2022/12/13 06:02:22;;;;;;;32.92;16.45;;;-3.80;99.90;;;;;;5023771;28;20033;-73
2022/12/13 06:04:48;;;;;;;33.55;17.13;;;-3.80;99.90;;;;;;5018547;28;20034;-74
2022/12/13 06:07:16;;;;;;;35.00;17.50;;;-3.90;99.90;;;;;;5001875;28;20044;-74
2022/12/13 06:09:42;;;;;;;33.80;17.17;;;-3.90;99.90;;;;;;5022251;28;20546;-73
2022/12/13 06:12:11;;;;;;;31.15;16.88;;;-3.90;99.90;;;;;;5004661;28;20039;-72
2022/12/13 06:14:37;;;;;;;32.78;16.95;;;-3.90;99.90;;;;;;5006128;28;20100;-74
2022/12/13 06:17:03;;;;;;;34.00;16.92;;;-3.20;99.90;;;;;;4984506;28;20050;-73
2022/12/13 06:19:29;;;;;;;33.92;17.42;;;-3.40;99.90;;;;;;5025440;28;20048;-72
2022/12/13 06:21:55;;;;;;;36.58;19.02;;;-4.00;99.90;;;;;;5025146;28;20049;-74
2022/12/13 06:24:22;;;;;;;36.65;18.20;;;-4.10;99.90;;;;;;5010372;28;20587;-73
2022/12/13 06:26:49;;;;;;;34.83;17.73;;;-3.20;99.90;;;;;;5028258;28;20085;-73
2022/12/13 06:29:17;;;;;;;29.95;16.20;;;-4.10;99.90;;;;;;5012643;28;20510;-74
2022/12/13 06:31:42;;;;;;;32.97;17.30;;;-4.20;99.90;;;;;;5022567;28;20035;-74
2022/12/13 06:34:08;;;;;;;34.13;17.23;;;-4.20;99.90;;;;;;5045491;28;20048;-74
2022/12/13 06:36:34;;;;;;;35.88;18.27;;;-3.20;99.90;;;;;;5029094;28;20069;-74
2022/12/13 06:39:06;;;;;;;34.33;17.98;;;-4.10;99.90;;;;;;5028006;28;20082;-74
2022/12/13 06:41:33;;;;;;;34.88;17.42;;;-3.00;99.90;;;;;;5027404;28;20098;-74
2022/12/13 06:43:59;;;;;;;35.35;18.83;;;-4.00;99.90;;;;;;5021796;28;20045;-73
2022/12/13 06:46:25;;;;;;;35.03;17.13;;;-4.00;99.90;;;;;;5029114;28;20096;-73
2022/12/13 06:48:52;;;;;;;32.83;16.92;;;-4.00;99.90;;;;;;5011959;28;20533;-74
2022/12/13 06:51:18;;;;;;;35.22;17.40;;;-4.00;99.90;;;;;;5020538;28;20033;-73
2022/12/13 06:53:44;;;;;;;30.77;16.60;;;-3.90;99.90;;;;;;5032456;28;20112;-73
2022/12/13 06:56:12;;;;;;;35.25;18.58;;;-3.90;99.90;;;;;;5020799;28;20549;-73
2022/12/13 06:58:42;;;;;;;34.45;17.48;;;-3.90;99.90;;;;;;5049247;28;20037;-73
2022/12/13 07:01:16;;;;;;;33.88;17.48;;;-2.90;99.90;;;;;;5016014;28;20056;-73
2022/12/13 07:03:42;;;;;;;38.58;20.08;;;-3.90;99.90;;;;;;5027777;28;20044;-72
2022/12/13 07:06:14;;;;;;;36.45;18.65;;;-3.50;99.90;;;;;;5027473;28;20045;-74
2022/12/13 07:08:41;;;;;;;36.03;18.00;;;-3.80;99.90;;;;;;5028624;28;20042;-74
2022/12/13 07:11:12;;;;;;;31.17;16.85;;;-3.80;99.90;;;;;;5012359;28;20056;-73
2022/12/13 07:13:38;;;;;;;39.25;18.20;;;-3.80;99.90;;;;;;5028893;28;20041;-73
2022/12/13 07:16:04;;;;;;;35.15;18.33;;;-3.80;99.90;;;;;;5027218;28;20048;-73
2022/12/13 07:18:35;;;;;;;33.97;16.10;;;-3.80;99.90;;;;;;5004415;28;20049;-74
2022/12/13 07:21:09;;;;;;;32.60;18.00;;;-3.10;99.90;;;;;;4995215;28;20514;-73
2022/12/13 07:23:39;;;;;;;34.63;18.30;;;-3.70;99.90;;;;;;5028726;28;20044;-73
2022/12/13 07:26:06;;;;;;;35.67;17.95;;;-4.20;99.90;;;;;;4998218;28;20118;-73
2022/12/13 07:28:33;;;;;;;36.30;17.65;;;-3.60;99.90;;;;;;5015263;28;20075;-73
2022/12/13 07:31:04;;;;;;;35.55;18.92;;;-3.60;99.90;;;;;;5014877;28;20510;-74
2022/12/13 07:33:31;;;;;;;37.35;18.80;;;-3.50;99.90;;;;;;5014738;28;20041;-74
2022/12/13 07:36:05;;;;;;;37.97;18.92;;;-3.50;99.90;;;;;;5031307;28;20040;-74
2022/12/13 07:38:35;;;;;;;34.42;19.15;;;-3.60;99.90;;;;;;5030200;28;20520;-74
2022/12/13 07:41:02;;;;;;;34.83;18.08;;;-3.60;99.90;;;;;;5031607;28;20052;-73
2022/12/13 07:43:28;;;;;;;39.80;19.20;;;-3.50;99.90;;;;;;5030098;28;20175;-75
2022/12/13 07:46:00;;;;;;;39.08;19.85;;;-3.50;99.90;;;;;;5031693;28;20542;-74
2022/12/13 07:48:28;;;;;;;35.05;18.20;;;-3.50;99.90;;;;;;5029203;28;20556;-74
2022/12/13 07:51:01;;;;;;;38.40;18.23;;;-3.60;99.90;;;;;;5056056;28;20166;-74
2022/12/13 07:53:29;;;;;;;42.03;18.65;;;-2.30;99.90;;;;;;5039085;28;20032;-74
2022/12/13 07:55:55;;;;;;;36.97;18.75;;;-4.40;99.90;;;;;;5051181;28;20045;-72
2022/12/13 07:58:21;;;;;;;38.92;19.20;;;-2.80;99.90;;;;;;5034574;28;20040;-74
2022/12/13 08:00:50;;;;;;;38.05;19.55;;;-3.50;99.90;;;;;;4999115;28;20069;-74
2022/12/13 08:03:19;;;;;;;38.80;19.33;;;-3.50;99.90;;;;;;5031252;28;20106;-77
2022/12/13 08:05:45;;;;;;;37.22;19.27;;;-3.60;99.90;;;;;;5002430;28;20502;-73
2022/12/13 08:08:11;;;;;;;39.90;19.00;;;-3.50;99.90;;;;;;5035139;28;20098;-74
2022/12/13 08:10:37;;;;;;;40.30;19.98;;;-3.10;99.90;;;;;;5013619;28;20759;-74
2022/12/13 08:13:04;;;;;;;36.72;19.65;;;-3.40;99.90;;;;;;5029259;28;20519;-74
2022/12/13 08:15:30;;;;;;;39.60;19.20;;;-3.40;99.90;;;;;;5033933;28;20049;-74
2022/12/13 08:18:00;;;;;;;37.28;19.67;;;-2.50;99.90;;;;;;5026115;28;20072;-73
2022/12/13 08:20:26;;;;;;;34.67;18.23;;;-4.40;99.90;;;;;;5044494;28;20067;-73
2022/12/13 08:22:56;;;;;;;40.38;19.58;;;-3.40;99.90;;;;;;5033343;28;20041;-73
2022/12/13 08:25:22;;;;;;;36.05;19.00;;;-2.90;99.90;;;;;;5031736;28;20053;-74
2022/12/13 08:27:51;;;;;;;36.83;19.65;;;-3.30;99.90;;;;;;5030397;28;20103;-72
2022/12/13 08:30:17;;;;;;;40.15;19.80;;;-2.30;99.90;;;;;;5015781;28;20053;-74
2022/12/13 08:32:43;;;;;;;41.72;20.10;;;-2.80;99.90;;;;;;5014212;28;20394;-72
2022/12/13 08:35:09;;;;;;;42.67;20.10;;;-3.20;99.90;;;;;;5031716;28;20033;-73
2022/12/13 08:37:35;;;;;;;38.95;21.00;;;-3.20;99.90;;;;;;5013642;28;20045;-73
2022/12/13 08:40:00;;;;;;;40.70;21.52;;;-3.10;99.90;;;;;;5034338;28;20367;-73
2022/12/13 08:42:26;;;;;;;38.90;20.33;;;-3.20;99.90;;;;;;5031761;28;20129;-74
2022/12/13 08:44:52;;;;;;;37.75;19.90;;;-1.20;99.90;;;;;;5031627;28;20038;-74
2022/12/13 08:47:23;;;;;;;36.00;18.48;;;-3.00;99.90;;;;;;5013842;28;20132;-74
2022/12/13 08:49:49;;;;;;;37.85;19.92;;;-2.90;99.90;;;;;;5030909;28;20052;-74
2022/12/13 08:52:15;;;;;;;38.53;20.45;;;-3.00;99.90;;;;;;5031217;28;20033;-73
2022/12/13 08:54:43;;;;;;;37.63;20.25;;;-3.20;99.90;;;;;;4996246;28;20041;-74
2022/12/13 08:57:09;;;;;;;38.63;20.67;;;-2.80;99.90;;;;;;5014821;28;20060;-74
2022/12/13 08:59:35;;;;;;;40.70;20.67;;;-2.80;99.90;;;;;;5030153;28;20041;-73
2022/12/13 09:02:01;;;;;;;37.65;19.85;;;-2.80;99.90;;;;;;5032698;28;20042;-74
2022/12/13 09:04:29;;;;;;;40.72;20.92;;;-2.70;99.90;;;;;;5011165;28;20042;-73
2022/12/13 09:06:57;;;;;;;40.63;20.73;;;-2.30;99.90;;;;;;5030994;28;20052;-73
2022/12/13 09:09:29;;;;;;;38.42;20.77;;;-2.70;99.90;;;;;;5013027;28;20037;-72
2022/12/13 09:11:58;;;;;;;36.10;19.63;;;-2.60;99.90;;;;;;5029979;28;20038;-73
2022/12/13 09:14:26;;;;;;;37.08;20.55;;;-2.80;99.90;;;;;;5014620;28;20044;-74
2022/12/13 09:16:52;;;;;;;40.90;20.77;;;-2.60;99.90;;;;;;4998145;28;20131;-73
2022/12/13 09:19:24;;;;;;;37.55;20.05;;;-2.60;99.90;;;;;;5013174;28;20072;-74
2022/12/13 09:21:50;;;;;;;42.22;22.52;;;-2.50;99.90;;;;;;5013272;28;20551;-74
2022/12/13 09:24:15;;;;;;;38.05;20.67;;;-2.50;99.90;;;;;;5030492;28;20422;-74
2022/12/13 09:26:41;;;;;;;41.40;20.67;;;-3.40;99.90;;;;;;5030936;28;20403;-74
2022/12/13 09:29:07;;;;;;;37.78;19.40;;;-2.30;99.90;;;;;;5014762;28;20451;-75
2022/12/13 09:31:34;;;;;;;40.95;22.08;;;-2.50;99.90;;;;;;5006079;28;20513;-74
2022/12/13 09:34:00;;;;;;;39.50;20.92;;;-2.00;99.90;;;;;;5034188;28;20041;-74
2022/12/13 09:36:26;;;;;;;41.53;22.08;;;-2.40;99.90;;;;;;5015435;28;20052;-73
2022/12/13 09:38:52;;;;;;;39.90;20.48;;;-2.20;99.90;;;;;;5029596;28;20482;-74
2022/12/13 09:41:32;;;;;;;41.78;22.77;;;-2.40;99.90;;;;;;4996800;28;20123;-73
2022/12/13 09:44:18;;;;;;;39.92;21.70;;;-1.80;99.90;;;;;;5023976;28;20414;-74
2022/12/13 09:46:45;;;;;;;38.58;19.75;;;-2.30;99.90;;;;;;5030158;28;20111;-73
2022/12/13 09:49:37;;;;;;;39.45;21.23;;;-2.20;99.90;;;;;;5029038;28;20552;-73
2022/12/13 09:52:05;;;;;;;39.53;20.67;;;-2.20;99.90;;;;;;5030232;28;20052;-74
2022/12/13 09:54:32;;;;;;;40.40;21.30;;;-2.40;99.90;;;;;;5013885;28;20040;-74
2022/12/13 09:56:58;;;;;;;39.65;21.38;;;-2.00;99.90;;;;;;5013431;28;20049;-74
2022/12/13 09:59:28;;;;;;;41.15;22.02;;;-2.30;99.90;;;;;;5029135;28;20400;-73
2022/12/13 10:01:56;;;;;;;43.22;21.15;;;-1.90;99.90;;;;;;5028652;28;20577;-74
2022/12/13 10:04:21;;;;;;;43.03;22.08;;;-1.90;99.90;;;;;;5016576;28;20545;-75
2022/12/13 10:06:52;;;;;;;40.95;21.52;;;-3.30;99.90;;;;;;5013789;28;20073;-73
2022/12/13 10:09:18;;;;;;;37.38;20.08;;;-1.70;99.90;;;;;;5028786;28;20044;-74
2022/12/13 10:11:52;;;;;;;41.70;21.38;;;-1.60;99.90;;;;;;5011263;28;20096;-74
2022/12/13 10:14:30;;;;;;;43.65;21.95;;;-1.60;99.90;;;;;;5017911;28;20587;-74
2022/12/13 10:17:01;;;;;;;39.53;22.15;;;-1.60;99.90;;;;;;5029547;28;20474;-73
2022/12/13 10:19:41;;;;;;;37.67;21.17;;;-1.50;99.90;;;;;;5040644;28;20045;-75
2022/12/13 10:22:15;;;;;;;40.53;21.25;;;-1.00;99.90;;;;;;5026943;28;20081;-73
2022/12/13 10:25:04;;;;;;;38.35;21.05;;;-1.40;99.90;;;;;;5040487;28;20506;-74
2022/12/13 10:27:40;;;;;;;43.97;21.90;;;-1.30;99.90;;;;;;5049379;28;20486;-72
2022/12/13 10:30:23;;;;;;;38.75;21.05;;;-1.30;99.90;;;;;;5049561;28;20040;-74
2022/12/13 10:32:53;;;;;;;40.10;21.58;;;-1.30;99.90;;;;;;5026358;28;20069;-74
2022/12/13 10:35:29;;;;;;;37.58;20.77;;;0.20;99.90;;;;;;5042632;28;20051;-73
2022/12/13 10:38:15;;;;;;;39.45;20.63;;;-1.20;99.90;;;;;;5049204;28;20119;-73
2022/12/13 10:40:44;;;;;;;40.35;21.30;;;0.60;99.90;;;;;;5032587;28;20130;-74
2022/12/13 10:43:17;;;;;;;42.13;22.77;;;-1.10;99.90;;;;;;5037284;28;20049;-73
2022/12/13 10:45:56;;;;;;;;;;;-1.10;99.90;;;;;;5035978;28;20045;-74
2022/12/13 10:48:30;;;;;;;41.50;21.48;;;-1.10;99.90;;;;;;5032243;28;20270;-73
2022/12/13 10:51:04;;;;;;;45.70;23.00;;;-1.00;99.90;;;;;;5032774;28;20414;-74
2022/12/13 10:53:34;;;;;;;41.47;22.38;;;-1.00;99.90;;;;;;5032653;28;20118;-75
2022/12/13 10:56:01;;;;;;;39.20;21.23;;;-0.90;99.90;;;;;;5027207;28;20395;-74
2022/12/13 10:58:34;;;;;;;37.85;21.02;;;;;;;;;;4995339;28;20038;-75
2022/12/13 11:01:20;;;;;;;39.00;22.13;;;-0.90;99.90;;;;;;5030235;28;20606;-74
2022/12/13 11:04:19;;;;;;;37.70;20.58;;;-0.90;99.90;;;;;;5028962;28;20117;-74
2022/12/13 11:06:47;;;;;;;38.67;20.38;;;-0.80;99.90;;;;;;5027419;28;20045;-75
2022/12/13 11:09:31;;;;;;;39.22;21.17;;;-0.70;99.90;;;;;;5028151;28;20170;-74
2022/12/13 11:12:03;;;;;;;38.00;20.38;;;-0.70;99.90;;;;;;5027105;28;20641;-75
2022/12/13 11:14:33;;;;;;;38.13;20.98;;;-0.60;99.90;;;;;;5028333;28;20042;-75
2022/12/13 11:17:08;;;;;;;40.47;22.02;;;-0.50;99.90;;;;;;5027082;28;20053;-75
2022/12/13 11:19:44;;;;;;;37.10;21.25;;;1.20;99.90;;;;;;5012129;28;20045;-75
2022/12/13 11:22:28;;;;;;;40.35;21.58;;;-0.40;99.90;;;;;;5024265;28;20172;-76
2022/12/13 11:25:03;;;;;;;37.78;21.35;;;-0.30;99.90;;;;;;5012379;28;20084;-76
2022/12/13 11:27:47;;;;;;;34.70;20.67;;;-0.30;99.90;;;;;;5010872;28;20064;-76
2022/12/13 11:30:27;;;;;;;38.90;20.67;;;0.60;99.90;;;;;;5028899;28;20073;-76
2022/12/13 11:33:12;;;;;;;37.10;20.33;;;-0.20;99.90;;;;;;5027395;28;20107;-76
2022/12/13 11:35:37;;;;;;;36.45;20.50;;;-0.10;99.90;;;;;;5028960;28;20423;-76
2022/12/13 11:38:35;;;;;;;37.58;21.25;;;-0.10;99.90;;;;;;5028292;28;20535;-76
2022/12/13 11:41:18;;;;;;;41.20;21.77;;;0.00;99.90;;;;;;5027759;28;20081;-78
2022/12/13 11:44:09;;;;;;;37.33;20.85;;;0.10;99.90;;;;;;5012534;28;20059;-78
2022/12/13 11:46:40;;;;;;;38.60;21.08;;;1.00;99.90;;;;;;5010845;28;20130;-78
2022/12/13 11:49:17;;;;;;;37.15;21.98;;;0.20;99.90;;;;;;5033839;28;21421;-77
2022/12/13 11:51:56;;;;;;;37.17;20.67;;;2.00;99.90;;;;;;5031054;28;20494;-76
2022/12/13 11:54:56;;;;;;;36.47;19.88;;;1.50;99.90;;;;;;5026174;28;20045;-77
2022/12/13 11:57:56;;;;;;;42.47;21.58;;;2.50;99.90;;;;;;5026541;28;20065;-77
2022/12/13 12:00:33;;;;;;;34.72;19.13;;;0.40;99.90;;;;;;5017710;28;20038;-78
2022/12/13 12:03:13;;;;;;;33.20;19.13;;;0.50;99.90;;;;;;5028126;28;20052;-77
2022/12/13 12:05:50;;;;;;;30.95;17.67;;;0.90;99.90;;;;;;5030001;28;20042;-77
2022/12/13 12:08:34;;;;;;;34.05;18.40;;;0.60;99.90;;;;;;5027137;28;20041;-77
2022/12/13 12:11:08;;;;;;;31.92;18.08;;;0.60;99.90;;;;;;5028551;28;20510;-78
2022/12/13 12:13:41;;;;;;;29.42;16.73;;;0.70;99.90;;;;;;5023005;28;20110;-77
2022/12/13 12:16:34;;;;;;;31.10;18.08;;;0.70;99.90;;;;;;5049685;28;20063;-78
2022/12/13 12:19:00;;;;;;;32.33;17.50;;;1.10;99.90;;;;;;5040589;28;20175;-77
2022/12/13 12:21:45;;;;;;;35.05;18.25;;;1.30;99.90;;;;;;5027313;28;20084;-77
2022/12/13 12:24:25;;;;;;;29.92;16.88;;;2.10;99.90;;;;;;5028126;28;20499;-77
2022/12/13 12:27:21;;;;;;;30.20;17.90;;;0.80;99.90;;;;;;5026781;28;20057;-76
2022/12/13 12:30:08;;;;;;;30.50;16.90;;;0.90;99.90;;;;;;5027238;28;20046;-76
2022/12/13 12:32:46;;;;;;;29.10;16.05;;;0.90;99.90;;;;;;5010864;28;20050;-77
2022/12/13 12:35:28;;;;;;;29.63;17.15;;;1.00;99.90;;;;;;5027931;28;20515;-77
2022/12/13 12:37:54;;;;;;;28.23;16.13;;;1.00;99.90;;;;;;5029168;28;20089;-78
2022/12/13 12:41:12;;;;;;;25.60;15.18;;;1.90;99.90;;;;;;5031442;28;20479;-77
2022/12/13 12:43:42;;;;;;;31.88;16.55;;;1.00;99.90;;;;;;4972045;28;20150;-77
2022/12/13 12:46:32;;;;;;;28.17;16.20;;;1.10;99.90;;;;;;5011942;28;20121;-77
2022/12/13 12:49:15;;;;;;;30.05;16.23;;;1.10;99.90;;;;;;5031744;28;20045;-78
2022/12/13 12:51:56;;;;;;;27.23;15.85;;;1.10;99.90;;;;;;5014062;28;20469;-77
2022/12/13 12:54:40;;;;;;;24.50;14.32;;;1.10;99.90;;;;;;5031488;28;20514;-77